Time;durP1;ratioP1;P1;durP2;ratioP2;P2;SDS_P1;SDS_P2;PMS_P1;PMS_P2;Temp;Humidity;BMP_temperature;BMP_pressure;BME280_temperature;BME280_humidity;BME280_pressure;Samples;Min_cycle;Max_cycle;Signal;HPM_P1;HPM_P2
2023/07/25 00:00:07;;;;;;;1.17;0.80;;;;;;;20.48;100.00;99084.63;6156230;23;20013;-89
2023/07/25 00:02:32;;;;;;;0.25;0.25;;;;;;;20.37;100.00;99065.03;6155904;23;20005;-88
2023/07/25 00:04:58;;;;;;;0.10;0.10;;;;;;;20.32;100.00;99079.94;6178846;23;20095;-88
2023/07/25 00:07:23;;;;;;;30.92;1.15;;;;;;;20.42;100.00;99086.00;6182182;23;20009;-88
2023/07/25 00:09:50;;;;;;;2.78;0.68;;;;;;;20.30;100.00;99090.94;6154750;23;20013;-87
2023/07/25 00:12:16;;;;;;;16.00;1.25;;;;;;;20.41;100.00;99102.13;6130950;23;20017;-87
2023/07/25 00:14:41;;;;;;;1.23;0.73;;;;;;;20.24;100.00;99081.78;6179770;23;20362;-87
2023/07/25 00:17:07;;;;;;;0.22;0.22;;;;;;;20.19;100.00;99085.41;6182127;23;20084;-88
2023/07/25 00:19:32;;;;;;;0.17;0.17;;;;;;;20.15;100.00;99068.03;6154759;23;20453;-88
2023/07/25 00:21:58;;;;;;;4.13;1.45;;;;;;;20.02;100.00;99036.94;6130953;23;20013;-88
2023/07/25 00:24:23;;;;;;;2.72;0.88;;;;;;;20.04;100.00;98989.31;6154972;23;20021;-88
2023/07/25 00:26:49;;;;;;;0.10;0.10;;;;;;;20.07;100.00;98898.19;6131123;23;20410;-88
2023/07/25 00:29:14;;;;;;;1.92;1.27;;;;;;;20.05;100.00;98864.19;6155912;23;20013;-88
2023/07/25 00:31:40;;;;;;;3.20;0.90;;;;;;;19.92;100.00;98850.78;6153587;23;20017;-87
2023/07/25 00:34:06;;;;;;;0.10;0.10;;;;;;;20.03;100.00;98903.34;6180801;23;20005;-87
2023/07/25 00:36:32;;;;;;;0.75;0.75;;;;;;;20.08;100.00;98916.59;6179042;23;20075;-88
2023/07/25 00:38:58;;;;;;;0.50;0.50;;;;;;;20.08;100.00;98916.59;6149611;23;20018;-88
2023/07/25 00:41:24;;;;;;;3.00;2.42;;;;;;;20.07;100.00;98917.88;6150954;23;20021;-87
2023/07/25 00:43:49;;;;;;;16.10;1.00;;;;;;;20.11;100.00;98911.97;6150610;23;20017;-87
2023/07/25 00:46:16;;;;;;;0.40;0.40;;;;;;;20.03;100.00;98914.59;6149124;23;20430;-87
2023/07/25 00:48:45;;;;;;;1.05;0.95;;;;;;;19.86;100.00;98916.84;6119183;23;20041;-88
2023/07/25 00:51:11;;;;;;;1.30;1.05;;;;;;;19.92;100.00;98928.81;6149167;23;20014;-91
2023/07/25 00:53:36;;;;;;;0.65;0.65;;;;;;;19.74;100.00;98898.53;6151553;23;20088;-88
2023/07/25 00:56:03;;;;;;;0.75;0.75;;;;;;;19.76;100.00;98910.03;6150786;23;20009;-90
2023/07/25 00:58:29;;;;;;;0.20;0.20;;;;;;;19.77;100.00;98956.59;6150172;23;20021;-90
2023/07/25 01:03:34;;;;;;;0.55;0.50;;;;;;;19.84;100.00;98998.97;6154229;23;20038;-87
2023/07/25 01:06:02;;;;;;;0.43;0.43;;;;;;;19.80;100.00;99009.75;6171274;23;20020;-87
2023/07/25 01:08:28;;;;;;;0.50;0.50;;;;;;;19.78;100.00;99017.19;6156693;23;20091;-87
2023/07/25 01:10:53;;;;;;;0.38;0.30;;;;;;;19.84;100.00;99038.38;6135106;23;20063;-87
2023/07/25 01:13:19;;;;;;;0.40;0.40;;;;;;;19.86;100.00;98990.00;6134737;23;20461;-87
2023/07/25 01:15:45;;;;;;;0.20;0.20;;;;;;;19.52;100.00;98928.44;6159001;23;20058;-87
2023/07/25 01:18:11;;;;;;;2.72;0.40;;;;;;;19.60;100.00;98906.13;6159765;23;20074;-87
2023/07/25 01:20:37;;;;;;;0.85;0.85;;;;;;;19.75;100.00;98916.94;6134384;23;20016;-87
2023/07/25 01:23:04;;;;;;;0.40;0.40;;;;;;;19.75;100.00;98871.94;6183882;23;20013;-87
2023/07/25 01:25:34;;;;;;;0.22;0.22;;;;;;;19.67;100.00;98797.84;6137054;23;20012;-87
2023/07/25 01:27:59;;;;;;;1.30;1.05;;;;;;;19.72;100.00;98809.06;6135245;23;20028;-87
2023/07/25 01:30:25;;;;;;;1.52;0.98;;;;;;;19.69;100.00;98841.06;6159928;23;20017;-88
2023/07/25 01:32:51;;;;;;;0.10;0.10;;;;;;;19.74;100.00;98864.78;6159917;23;20023;-88
2023/07/25 01:35:17;;;;;;;0.73;0.57;;;;;;;19.67;100.00;98849.25;6134193;23;20039;-88
2023/07/25 01:37:42;;;;;;;0.40;0.40;;;;;;;19.62;100.00;98829.63;6134612;23;20016;-87
2023/07/25 01:40:09;;;;;;;7.00;0.43;;;;;;;19.53;100.00;98823.06;6159289;23;20377;-87
2023/07/25 01:42:34;;;;;;;0.38;0.30;;;;;;;19.42;100.00;98817.56;6135781;23;20067;-87
2023/07/25 01:45:00;;;;;;;1.25;1.15;;;;;;;19.48;100.00;98809.06;6160014;23;20012;-88
2023/07/25 01:47:25;;;;;;;2.33;1.38;;;;;;;19.52;100.00;98815.16;6158280;23;20263;-87
2023/07/25 01:49:52;;;;;;;1.20;0.80;;;;;;;19.59;100.00;98822.25;6134491;23;20016;-87
2023/07/25 01:52:19;;;;;;;0.13;0.13;;;;;;;19.60;100.00;98821.72;6160175;23;20008;-87
2023/07/25 01:54:44;;;;;;;0.15;0.15;;;;;;;19.54;100.00;98816.16;6158511;23;20005;-86
2023/07/25 01:57:10;;;;;;;0.35;0.35;;;;;;;19.57;100.00;98830.47;6134111;23;20028;-86
2023/07/25 01:59:35;;;;;;;0.35;0.25;;;;;;;19.49;100.00;98816.97;6160111;23;20088;-85
2023/07/25 02:02:01;;;;;;;0.65;0.65;;;;;;;19.55;100.00;98823.31;6128689;23;20389;-86
2023/07/25 02:04:42;;;;;;;1.23;0.98;;;;;;;19.58;100.00;98823.53;6130874;23;20475;-86
2023/07/25 02:07:08;;;;;;;0.40;0.38;;;;;;;19.63;100.00;98817.84;6105146;23;20021;-86
2023/07/25 02:09:33;;;;;;;0.70;0.55;;;;;;;19.73;100.00;98807.78;6105224;23;20460;-86
2023/07/25 02:12:01;;;;;;;0.45;0.45;;;;;;;19.69;100.00;98782.00;6154464;23;20001;-86
2023/07/25 02:14:26;;;;;;;0.03;0.03;;;;;;;19.71;100.00;98787.06;6130094;23;20008;-87
2023/07/25 02:16:52;;;;;;;1.13;1.02;;;;;;;19.78;100.00;98808.97;6105738;23;20020;-85
2023/07/25 02:19:18;;;;;;;1.05;0.95;;;;;;;19.74;100.00;98797.25;6130368;23;20013;-86
2023/07/25 02:21:44;;;;;;;0.80;0.80;;;;;;;19.60;100.00;98787.22;6128805;23;20116;-86
2023/07/25 02:24:09;;;;;;;0.90;0.50;;;;;;;19.66;100.00;98790.69;6106103;23;20013;-87
2023/07/25 02:26:35;;;;;;;1.92;1.27;;;;;;;19.64;100.00;98784.84;6154294;23;20021;-87
2023/07/25 02:29:00;;;;;;;0.10;0.10;;;;;;;19.64;100.00;98793.28;6106290;23;20009;-87
2023/07/25 02:31:26;;;;;;;1.95;1.27;;;;;;;19.66;100.00;98791.47;6129180;23;20036;-87
2023/07/25 02:33:52;;;;;;;0.90;0.63;;;;;;;19.65;100.00;98763.88;6105030;23;20125;-87
2023/07/25 02:36:17;;;;;;;0.95;0.82;;;;;;;19.55;100.00;98757.84;6128939;23;20435;-87
2023/07/25 02:38:43;;;;;;;0.65;0.43;;;;;;;19.50;100.00;98756.63;6105663;23;20322;-87
2023/07/25 02:41:11;;;;;;;0.50;0.47;;;;;;;19.42;100.00;98768.97;6130826;23;20024;-87
2023/07/25 02:43:37;;;;;;;0.65;0.22;;;;;;;19.44;100.00;98772.81;6105997;23;20017;-87
2023/07/25 02:46:02;;;;;;;1.15;0.65;;;;;;;19.51;100.00;98766.59;6129318;23;20021;-87
2023/07/25 02:48:28;;;;;;;7.38;1.35;;;;;;;19.50;100.00;98744.59;6153164;23;20028;-88
2023/07/25 02:50:53;;;;;;;0.20;0.20;;;;;;;19.40;100.00;98747.00;6128791;23;20025;-87
2023/07/25 02:53:19;;;;;;;0.20;0.20;;;;;;;19.40;100.00;98755.44;6179992;23;20013;-87
2023/07/25 02:55:45;;;;;;;0.15;0.15;;;;;;;19.42;100.00;98785.84;6107038;23;20017;-87
2023/07/25 02:58:12;;;;;;;0.80;0.73;;;;;;;19.39;100.00;98807.34;6107736;23;20058;-87
2023/07/25 03:00:38;;;;;;;0.35;0.35;;;;;;;19.41;100.00;98778.72;6131215;23;20028;-88
2023/07/25 03:03:04;;;;;;;1.88;1.20;;;;;;;19.32;100.00;98768.56;6127515;23;20013;-87
2023/07/25 03:05:29;;;;;;;12.38;1.13;;;;;;;19.32;100.00;98774.19;6180438;23;20345;-87
2023/07/25 03:07:56;;;;;;;2.40;0.77;;;;;;;19.39;100.00;98772.84;6107533;23;20514;-87
2023/07/25 03:10:22;;;;;;;0.28;0.28;;;;;;;19.44;100.00;98774.84;6131551;23;20013;-87
2023/07/25 03:12:47;;;;;;;1.00;0.90;;;;;;;19.45;100.00;98765.13;6155705;23;20021;-87
2023/07/25 03:15:13;;;;;;;3.75;1.55;;;;;;;19.46;100.00;98789.91;6131845;23;20012;-88
2023/07/25 03:17:39;;;;;;;0.05;0.05;;;;;;;19.48;100.00;98780.94;6107648;23;20060;-88
2023/07/25 03:20:06;;;;;;;0.00;0.00;;;;;;;19.49;100.00;98788.84;6129468;23;20448;-87
2023/07/25 03:22:32;;;;;;;0.88;0.85;;;;;;;19.51;100.00;98797.53;6132112;23;20020;-87
2023/07/25 03:24:57;;;;;;;0.30;0.30;;;;;;;19.58;100.00;98806.66;6131198;23;20408;-87
2023/07/25 03:27:24;;;;;;;0.57;0.57;;;;;;;19.53;100.00;98800.56;6132112;23;20021;-88
2023/07/25 03:29:49;;;;;;;0.28;0.28;;;;;;;19.48;100.00;98807.03;6129970;23;20067;-86
2023/07/25 03:32:15;;;;;;;0.00;0.00;;;;;;;19.41;100.00;98801.19;6129740;23;20080;-86
2023/07/25 03:34:40;;;;;;;0.52;0.52;;;;;;;19.45;100.00;98819.31;6181078;23;20016;-86
2023/07/25 03:37:06;;;;;;;0.30;0.30;;;;;;;19.35;100.00;98817.34;6131089;23;20075;-85
2023/07/25 03:39:31;;;;;;;0.40;0.40;;;;;;;19.41;100.00;98809.63;6154874;23;20024;-86
2023/07/25 03:41:57;;;;;;;0.35;0.35;;;;;;;19.37;100.00;98803.53;6131655;23;20460;-86
2023/07/25 03:44:22;;;;;;;0.65;0.57;;;;;;;19.38;100.00;98808.63;6131404;23;20329;-86
2023/07/25 03:46:48;;;;;;;0.30;0.30;;;;;;;19.34;100.00;98788.47;6128651;23;20166;-86
2023/07/25 03:49:13;;;;;;;1.17;0.80;;;;;;;19.41;100.00;98796.31;6155393;23;20063;-86
2023/07/25 03:51:39;;;;;;;0.30;0.30;;;;;;;19.36;100.00;98785.91;6153676;23;20009;-86
2023/07/25 03:54:05;;;;;;;1.27;0.50;;;;;;;19.42;100.00;98792.25;6106385;23;20009;-86
2023/07/25 03:56:31;;;;;;;0.35;0.35;;;;;;;19.45;100.00;98805.25;6130644;23;20519;-86
2023/07/25 03:58:57;;;;;;;0.88;0.77;;;;;;;19.40;100.00;98808.88;6155064;23;20111;-86
2023/07/25 04:01:23;;;;;;;0.17;0.17;;;;;;;19.33;100.00;98823.50;6178993;23;20353;-87
2023/07/25 04:03:48;;;;;;;0.17;0.17;;;;;;;19.35;100.00;98820.94;6153765;23;20024;-87
2023/07/25 04:06:14;;;;;;;0.85;0.82;;;;;;;19.39;100.00;98818.59;6129128;23;20080;-87
2023/07/25 04:08:40;;;;;;;0.95;0.68;;;;;;;19.48;100.00;98825.94;6129590;23;20481;-86
2023/07/25 04:11:05;;;;;;;1.55;0.98;;;;;;;19.47;100.00;98821.59;6130702;23;20036;-87
2023/07/25 04:13:31;;;;;;;1.35;1.25;;;;;;;19.51;100.00;98825.66;6180952;23;20484;-87
2023/07/25 04:15:56;;;;;;;1.55;0.95;;;;;;;19.53;100.00;98822.31;6130996;23;20448;-86
2023/07/25 04:18:22;;;;;;;0.43;0.43;;;;;;;19.54;100.00;98816.16;6129003;23;20055;-87
2023/07/25 04:20:48;;;;;;;0.30;0.30;;;;;;;19.58;100.00;98806.66;6130027;23;20445;-87
2023/07/25 04:23:16;;;;;;;0.40;0.40;;;;;;;19.63;100.00;98800.22;6132099;23;20346;-87
2023/07/25 04:25:42;;;;;;;0.75;0.75;;;;;;;19.60;100.00;98787.97;6107322;23;20062;-87
2023/07/25 04:28:08;;;;;;;1.00;0.90;;;;;;;19.65;100.00;98794.81;6131430;23;20096;-86
2023/07/25 04:30:33;;;;;;;0.30;0.30;;;;;;;19.61;100.00;98783.09;6131853;23;20005;-87
2023/07/25 04:32:59;;;;;;;2.58;1.30;;;;;;;19.63;100.00;98786.13;6155700;23;20428;-88
2023/07/25 04:35:24;;;;;;;0.47;0.30;;;;;;;19.51;100.00;98789.09;6130412;23;20535;-87
2023/07/25 04:37:50;;;;;;;0.65;0.65;;;;;;;19.43;100.00;98805.03;6156201;23;20027;-87
2023/07/25 04:40:15;;;;;;;0.90;0.73;;;;;;;19.48;100.00;98807.03;6155714;23;20013;-87
2023/07/25 04:42:41;;;;;;;7.03;0.95;;;;;;;19.60;100.00;98804.09;6107000;23;20033;-88
2023/07/25 04:45:07;;;;;;;0.32;0.32;;;;;;;19.57;100.00;98810.78;6105390;23;20409;-87
2023/07/25 04:47:33;;;;;;;1.00;0.95;;;;;;;19.60;100.00;98815.34;6129836;23;20021;-87
2023/07/25 04:49:58;;;;;;;0.88;0.77;;;;;;;19.65;100.00;98828.59;6129478;23;20032;-88
2023/07/25 04:52:24;;;;;;;2.00;0.95;;;;;;;19.70;100.00;98831.31;6152460;23;20012;-87
2023/07/25 04:54:50;;;;;;;0.60;0.60;;;;;;;19.77;100.00;98852.50;6102811;23;20503;-89
2023/07/25 04:57:16;;;;;;;0.20;0.20;;;;;;;19.80;100.00;98857.06;6129998;23;20017;-87
2023/07/25 04:59:47;;;;;;;0.73;0.73;;;;;;;19.93;100.00;98865.59;6107143;23;20001;-88
2023/07/25 05:02:13;;;;;;;2.22;0.70;;;;;;;20.01;100.00;98866.53;6129889;23;20017;-87
2023/07/25 05:04:38;;;;;;;1.17;0.65;;;;;;;20.03;100.00;98864.69;6106791;23;20087;-88
2023/07/25 05:07:04;;;;;;;0.73;0.73;;;;;;;20.08;100.00;98874.38;6105472;23;20464;-88
2023/07/25 05:09:29;;;;;;;0.15;0.13;;;;;;;20.11;100.00;98881.75;6131482;23;20001;-88
2023/07/25 05:11:55;;;;;;;0.80;0.73;;;;;;;20.16;100.00;98863.28;6106911;23;20021;-88
2023/07/25 05:14:20;;;;;;;0.50;0.30;;;;;;;20.23;100.00;98854.97;6155825;23;20079;-88
2023/07/25 05:16:46;;;;;;;0.55;0.38;;;;;;;20.32;100.00;98828.53;6129669;23;20096;-86
2023/07/25 05:19:11;;;;;;;0.08;0.08;;;;;;;20.34;100.00;98820.31;6155027;23;20076;-87
2023/07/25 05:21:37;;;;;;;0.57;0.35;;;;;;;20.36;100.00;98815.69;6129980;23;20016;-88
2023/07/25 05:24:03;;;;;;;0.98;0.88;;;;;;;20.45;100.00;98826.56;6130431;23;20017;-88
2023/07/25 05:26:28;;;;;;;0.10;0.10;;;;;;;20.61;100.00;98840.94;6131389;23;20005;-87
2023/07/25 05:28:53;;;;;;;0.85;0.82;;;;;;;20.64;100.00;98825.78;6106591;23;20045;-87
2023/07/25 05:31:19;;;;;;;0.40;0.40;;;;;;;20.78;100.00;98830.19;6104784;23;20016;-87
2023/07/25 05:33:44;;;;;;;0.25;0.22;;;;;;;20.89;100.00;98824.34;6175729;23;20336;-88
2023/07/25 05:36:10;;;;;;;0.65;0.47;;;;;;;21.08;100.00;98819.41;6130079;23;20021;-91
2023/07/25 05:38:36;;;;;;;0.50;0.45;;;;;;;21.30;100.00;98823.94;6133405;23;20009;-89
2023/07/25 05:41:02;;;;;;;0.40;0.30;;;;;;;21.44;100.00;98810.59;6129243;23;20012;-87
2023/07/25 05:43:28;;;;;;;2.65;1.67;;;;;;;21.65;100.00;98792.50;6129307;23;20327;-88
2023/07/25 05:45:53;;;;;;;0.68;0.63;;;;;;;21.93;100.00;98799.66;6104920;23;20016;-87
2023/07/25 05:48:19;;;;;;;0.47;0.47;;;;;;;21.97;100.00;98814.22;6131254;23;20245;-87
2023/07/25 05:50:52;;;;;;;0.85;0.63;;;;;;;22.18;100.00;98803.75;6152660;23;20353;-89
2023/07/25 05:53:18;;;;;;;0.28;0.28;;;;;;;22.43;100.00;98790.09;6129288;23;20017;-87
2023/07/25 05:55:47;;;;;;;0.25;0.25;;;;;;;22.42;100.00;98772.38;6130896;23;20088;-93
2023/07/25 05:58:16;;;;;;;1.10;1.00;;;;;;;22.69;100.00;98796.44;6099615;23;20060;-88
2023/07/25 06:00:43;;;;;;;0.65;0.65;;;;;;;22.76;100.00;98778.03;6100895;23;20381;-88
2023/07/25 06:03:13;;;;;;;1.17;0.82;;;;;;;22.75;100.00;98768.03;6099125;23;20096;-88
2023/07/25 06:05:39;;;;;;;0.30;0.30;;;;;;;22.86;100.00;98753.63;6125217;23;20013;-87
2023/07/25 06:08:05;;;;;;;0.88;0.88;;;;;;;22.94;100.00;98748.78;6124383;23;20088;-88
2023/07/25 06:10:31;;;;;;;1.23;1.00;;;;;;;23.02;100.00;98732.63;6124415;23;20012;-90
2023/07/25 06:12:56;;;;;;;3.47;0.68;;;;;;;23.04;100.00;98726.44;6128508;23;19997;-88
2023/07/25 06:15:25;;;;;;;0.10;0.10;;;;;;;23.15;100.00;98724.06;6100579;23;20316;-88
2023/07/25 06:17:50;;;;;;;0.55;0.38;;;;;;;23.33;100.00;98699.66;6127105;23;20560;-88
2023/07/25 06:20:16;;;;;;;0.25;0.25;;;;;;;23.34;100.00;98683.44;6100604;23;20027;-88
2023/07/25 06:22:41;;;;;;;0.38;0.20;;;;;;;23.44;100.00;98695.78;6126729;23;20486;-89
2023/07/25 06:25:07;;;;;;;0.47;0.47;;;;;;;23.36;100.00;98686.47;6130593;23;20449;-88
2023/07/25 06:27:33;;;;;;;1.15;0.60;;;;;;;23.53;100.00;98678.28;6106147;23;20100;-89
2023/07/25 06:30:00;;;;;;;0.17;0.10;;;;;;;23.53;100.00;98672.63;6105832;23;20345;-89
2023/07/25 06:32:25;;;;;;;0.30;0.30;;;;;;;23.24;100.00;98669.81;6130778;23;20088;-88
2023/07/25 06:34:51;;;;;;;4.20;1.65;;;;;;;22.86;100.00;98653.91;6128873;23;20047;-88
2023/07/25 06:37:19;;;;;;;2.00;0.88;;;;;;;22.70;100.00;98644.56;6130801;23;20020;-88
2023/07/25 06:39:45;;;;;;;0.50;0.32;;;;;;;22.32;100.00;98630.84;6106550;23;20017;-88
2023/07/25 06:42:10;;;;;;;1.08;0.65;;;;;;;22.22;100.00;98627.00;6155823;23;20017;-89
2023/07/25 06:44:36;;;;;;;0.40;0.40;;;;;;;22.06;100.00;98624.59;6131403;23;20437;-88
2023/07/25 06:47:02;;;;;;;0.57;0.57;;;;;;;21.77;100.00;98592.63;6153828;23;20017;-87
2023/07/25 06:49:32;;;;;;;1.13;0.65;;;;;;;21.65;100.00;98591.38;6130596;23;20005;-88
2023/07/25 06:51:57;;;;;;;0.52;0.52;;;;;;;21.60;100.00;98569.69;6178925;23;20012;-87
2023/07/25 06:54:23;;;;;;;9.45;1.83;;;;;;;21.69;100.00;98583.34;6130964;23;20013;-88
2023/07/25 06:56:48;;;;;;;2.08;1.23;;;;;;;21.60;100.00;98578.91;6130301;23;20012;-88
2023/07/25 06:59:14;;;;;;;2.15;1.42;;;;;;;21.55;100.00;98618.56;6105643;23;20351;-88
2023/07/25 07:01:40;;;;;;;6.53;1.30;;;;;;;21.43;100.00;98637.03;6105499;23;20096;-88
2023/07/25 07:04:05;;;;;;;1.20;1.10;;;;;;;21.39;100.00;98671.94;6153944;23;20013;-88
2023/07/25 07:06:31;;;;;;;1.75;0.95;;;;;;;21.35;100.00;98691.25;6129015;23;20124;-87
2023/07/25 07:08:57;;;;;;;0.20;0.20;;;;;;;21.30;100.00;98678.06;6105938;23;20072;-89
2023/07/25 07:11:26;;;;;;;0.20;0.20;;;;;;;21.26;100.00;98676.84;6106113;23;20017;-87
2023/07/25 07:13:51;;;;;;;0.45;0.45;;;;;;;21.15;100.00;98675.00;6154968;23;20001;-89
2023/07/25 07:16:17;;;;;;;1.15;0.82;;;;;;;21.13;100.00;98652.25;6154914;23;20044;-88
2023/07/25 07:19:02;;;;;;;1.15;0.30;;;;;;;21.18;100.00;98679.56;6154957;23;20005;-89
2023/07/25 07:21:27;;;;;;;0.55;0.55;;;;;;;21.16;100.00;98696.25;6130021;23;20063;-88
2023/07/25 07:23:53;;;;;;;0.43;0.43;;;;;;;21.12;100.00;98676.09;6130639;23;20013;-88
2023/07/25 07:26:19;;;;;;;1.35;1.15;;;;;;;21.03;100.00;98693.41;6106612;23;20001;-87
2023/07/25 07:28:45;;;;;;;1.30;1.20;;;;;;;21.00;100.00;98700.13;6154985;23;20017;-88
2023/07/25 07:31:12;;;;;;;0.40;0.40;;;;;;;21.09;100.00;98787.09;6131532;23;20009;-88
2023/07/25 07:33:38;;;;;;;0.45;0.45;;;;;;;20.93;100.00;98788.16;6181587;23;20084;-89
2023/07/25 07:36:04;;;;;;;0.52;0.52;;;;;;;20.85;100.00;98725.25;6129319;23;20012;-88
2023/07/25 07:38:29;;;;;;;0.20;0.20;;;;;;;20.78;100.00;98692.09;6106564;23;20108;-88
2023/07/25 07:40:55;;;;;;;0.63;0.20;;;;;;;20.83;100.00;98719.38;6107080;23;20044;-89
2023/07/25 07:43:21;;;;;;;12.35;1.77;;;;;;;20.96;100.00;98891.38;6107861;23;20039;-88
2023/07/25 07:45:46;;;;;;;0.35;0.35;;;;;;;20.87;100.00;98956.59;6106998;23;20464;-88
2023/07/25 07:48:12;;;;;;;0.43;0.40;;;;;;;20.69;100.00;98850.28;6131435;23;20028;-87
2023/07/25 07:50:37;;;;;;;0.47;0.45;;;;;;;20.51;100.00;98729.94;6155051;23;20013;-87
2023/07/25 07:53:03;;;;;;;1.38;0.85;;;;;;;20.38;100.00;98691.97;6131830;23;20027;-87
2023/07/25 07:55:29;;;;;;;0.28;0.28;;;;;;;20.36;100.00;98700.22;6131922;23;20325;-88
2023/07/25 07:57:55;;;;;;;0.40;0.40;;;;;;;20.39;100.00;98726.53;6106708;23;20021;-89
2023/07/25 08:00:21;;;;;;;0.25;0.25;;;;;;;20.33;100.00;98684.41;6107604;23;20079;-87
2023/07/25 08:02:47;;;;;;;1.80;0.68;;;;;;;20.38;100.00;98697.59;6131043;23;20076;-87
2023/07/25 08:05:13;;;;;;;0.43;0.43;;;;;;;20.35;100.00;98754.25;6106624;23;20013;-88
2023/07/25 08:07:40;;;;;;;0.35;0.35;;;;;;;20.36;100.00;98779.06;6155921;23;20027;-87
2023/07/25 08:10:06;;;;;;;0.35;0.35;;;;;;;20.39;100.00;98837.13;6131902;23;20476;-87
2023/07/25 08:12:32;;;;;;;0.80;0.65;;;;;;;20.37;100.00;98752.44;6131592;23;20024;-88
2023/07/25 08:14:58;;;;;;;0.63;0.60;;;;;;;20.32;100.00;98733.56;6154921;23;20092;-87
2023/07/25 08:17:23;;;;;;;0.25;0.25;;;;;;;20.31;100.00;98743.28;6130683;23;20044;-87
2023/07/25 08:19:49;;;;;;;0.40;0.40;;;;;;;20.23;100.00;98719.84;6131057;23;20464;-87
2023/07/25 08:22:14;;;;;;;0.93;0.93;;;;;;;20.20;100.00;98698.38;6131476;23;20055;-87
2023/07/25 08:24:41;;;;;;;0.70;0.52;;;;;;;20.16;100.00;98681.03;6156089;23;20017;-87
2023/07/25 08:27:07;;;;;;;1.48;0.30;;;;;;;20.14;100.00;98714.59;6130009;23;20155;-87
2023/07/25 08:29:32;;;;;;;0.47;0.43;;;;;;;20.09;100.00;98726.72;6132282;23;20072;-87
2023/07/25 08:31:58;;;;;;;0.82;0.82;;;;;;;20.02;100.00;98738.56;6107014;23;20440;-88
2023/07/25 08:34:23;;;;;;;0.10;0.10;;;;;;;19.97;100.00;98792.91;6156378;23;20008;-87
2023/07/25 08:36:49;;;;;;;0.75;0.75;;;;;;;20.07;100.00;98853.13;6129129;23;20322;-86
2023/07/25 08:39:14;;;;;;;1.25;0.95;;;;;;;20.03;100.00;98920.22;6154889;23;20017;-87
2023/07/25 08:41:45;;;;;;;0.32;0.32;;;;;;;19.98;100.00;98941.53;6156530;23;20013;-87
2023/07/25 08:44:11;;;;;;;0.45;0.45;;;;;;;19.91;100.00;98890.69;6156465;23;20085;-87
2023/07/25 08:46:41;;;;;;;0.43;0.20;;;;;;;19.81;100.00;98816.38;6131551;23;20016;-87
2023/07/25 08:49:11;;;;;;;0.85;0.77;;;;;;;19.81;100.00;98813.56;6131090;23;20017;-87
2023/07/25 08:51:40;;;;;;;0.35;0.35;;;;;;;19.87;100.00;98888.16;6130240;23;20031;-87
2023/07/25 08:54:10;;;;;;;0.98;0.88;;;;;;;19.78;100.00;98927.16;6156031;23;20017;-87
2023/07/25 08:56:37;;;;;;;1.27;1.02;;;;;;;19.74;100.00;98949.19;6131109;23;20136;-88
2023/07/25 08:59:04;;;;;;;0.75;0.47;;;;;;;19.65;100.00;98958.00;6130654;23;20088;-87
2023/07/25 09:01:30;;;;;;;0.45;0.45;;;;;;;19.69;100.00;98935.97;6130770;23;20013;-88
2023/07/25 09:03:56;;;;;;;0.40;0.40;;;;;;;19.71;100.00;98924.91;6155446;23;20013;-88
2023/07/25 09:06:22;;;;;;;0.25;0.25;;;;;;;19.72;100.00;98895.50;6130561;23;20013;-88
2023/07/25 09:08:48;;;;;;;0.43;0.38;;;;;;;19.79;100.00;98889.28;6107059;23;20445;-88
2023/07/25 09:11:14;;;;;;;0.57;0.30;;;;;;;19.89;100.00;98882.03;6107566;23;20021;-88
2023/07/25 09:13:40;;;;;;;0.20;0.20;;;;;;;19.95;100.00;98871.44;6156214;23;20040;-87
2023/07/25 09:16:05;;;;;;;0.45;0.45;;;;;;;20.02;100.00;98877.25;6156046;23;20005;-88
2023/07/25 09:18:31;;;;;;;0.30;0.30;;;;;;;20.04;100.00;98876.72;6130458;23;20024;-87
2023/07/25 09:20:57;;;;;;;0.00;0.00;;;;;;;20.05;100.00;98878.25;6104740;23;20385;-87
2023/07/25 09:23:22;;;;;;;0.20;0.20;;;;;;;20.05;100.00;98867.00;6130865;23;20033;-90
2023/07/25 09:25:49;;;;;;;0.10;0.10;;;;;;;20.01;100.00;98847.59;6130072;23;20089;-87
2023/07/25 09:28:14;;;;;;;0.60;0.50;;;;;;;20.00;100.00;98811.53;6131509;23;20025;-87
2023/07/25 09:30:48;;;;;;;0.10;0.10;;;;;;;20.03;100.00;98799.97;6130962;23;20222;-87
2023/07/25 09:33:25;;;;;;;0.00;0.00;;;;;;;19.97;100.00;98796.47;6106716;23;20008;-87
2023/07/25 09:35:50;;;;;;;0.20;0.20;;;;;;;19.91;100.00;98789.38;6104780;23;20445;-88
2023/07/25 09:38:16;;;;;;;0.10;0.10;;;;;;;19.80;100.00;98789.53;6130596;23;20092;-88
2023/07/25 09:40:42;;;;;;;0.28;0.20;;;;;;;19.81;100.00;98807.94;6106500;23;20040;-87
2023/07/25 09:43:08;;;;;;;0.00;0.00;;;;;;;19.81;100.00;98785.44;6131278;23;20050;-87
2023/07/25 09:45:36;;;;;;;0.35;0.35;;;;;;;19.85;100.00;98769.00;6131076;23;20449;-87
2023/07/25 09:48:03;;;;;;;0.32;0.32;;;;;;;19.78;100.00;98747.84;6130805;23;20400;-88
2023/07/25 09:50:33;;;;;;;0.10;0.10;;;;;;;19.81;100.00;98743.97;6130055;23;20445;-87
2023/07/25 09:53:01;;;;;;;0.32;0.32;;;;;;;19.85;100.00;98721.16;6106795;23;20015;-88
2023/07/25 09:55:27;;;;;;;0.00;0.00;;;;;;;20.01;100.00;98720.94;6131635;23;20346;-87
2023/07/25 09:57:53;;;;;;;0.10;0.10;;;;;;;20.22;100.00;98726.75;6131210;23;20012;-88
2023/07/25 10:00:18;;;;;;;0.10;0.10;;;;;;;20.35;100.00;98749.38;6131022;23;20454;-87
2023/07/25 10:02:44;;;;;;;1.10;0.60;;;;;;;20.45;100.00;98735.66;6130342;23;20012;-87
2023/07/25 10:05:09;;;;;;;0.20;0.17;;;;;;;20.53;100.00;98722.47;6130318;23;20071;-88
2023/07/25 10:07:35;;;;;;;0.57;0.30;;;;;;;20.65;100.00;98737.13;6131447;23;20045;-89
2023/07/25 10:10:03;;;;;;;0.10;0.10;;;;;;;20.83;100.00;98758.84;6130786;23;20100;-89
2023/07/25 10:12:29;;;;;;;0.20;0.20;;;;;;;20.90;100.00;98747.72;6156358;23;20410;-87
2023/07/25 10:14:56;;;;;;;4.50;0.20;;;;;;;20.91;100.00;98760.50;6155386;23;20017;-87
2023/07/25 10:17:23;;;;;;;0.00;0.00;;;;;;;20.90;100.00;98755.41;6131116;23;20013;-86
2023/07/25 10:19:51;;;;;;;0.00;0.00;;;;;;;20.93;100.00;98757.91;6105698;23;20012;-87
2023/07/25 10:22:31;;;;;;;0.30;0.30;;;;;;;21.00;100.00;98733.97;6155516;23;20013;-88
2023/07/25 10:24:56;;;;;;;0.32;0.28;;;;;;;21.15;100.00;98711.66;6130956;23;20459;-87
2023/07/25 10:27:22;;;;;;;0.98;0.73;;;;;;;21.07;100.00;98687.47;6106951;23;20049;-87
2023/07/25 10:29:47;;;;;;;0.20;0.13;;;;;;;21.19;100.00;98697.25;6130765;23;20013;-87
2023/07/25 10:32:17;;;;;;;0.00;0.00;;;;;;;21.22;100.00;98693.34;6106646;23;19997;-88
2023/07/25 10:34:50;;;;;;;0.00;0.00;;;;;;;21.27;100.00;98755.25;6155388;23;20071;-89
2023/07/25 10:37:35;;;;;;;2.92;0.80;;;;;;;21.26;100.00;98789.66;6131312;23;20487;-88
2023/07/25 10:40:13;;;;;;;0.20;0.20;;;;;;;20.86;100.00;98791.63;6131484;23;20017;-88
2023/07/25 10:42:50;;;;;;;0.00;0.00;;;;;;;20.80;100.00;98800.16;6156172;23;20045;-88
2023/07/25 10:45:19;;;;;;;0.00;0.00;;;;;;;20.81;100.00;98800.91;6155422;23;20441;-87
2023/07/25 10:47:45;;;;;;;0.00;0.00;;;;;;;20.90;100.00;98800.50;6130557;23;20021;-88
2023/07/25 10:50:11;;;;;;;0.30;0.25;;;;;;;20.93;100.00;98802.25;6105772;23;20036;-88
2023/07/25 10:52:44;;;;;;;0.10;0.10;;;;;;;21.05;100.00;98831.78;6155910;23;20009;-88
2023/07/25 10:55:14;;;;;;;0.38;0.30;;;;;;;20.83;100.00;98865.94;6107347;23;20017;-88
2023/07/25 10:57:40;;;;;;;0.30;0.30;;;;;;;20.71;100.00;98887.13;6106174;23;20020;-86
2023/07/25 11:00:10;;;;;;;0.20;0.20;;;;;;;20.51;100.00;98873.59;6104715;23;20017;-85
2023/07/25 11:02:42;;;;;;;0.00;0.00;;;;;;;20.35;100.00;98883.78;6129954;23;20013;-87
2023/07/25 11:05:14;;;;;;;0.10;0.10;;;;;;;20.42;100.00;98934.63;6153130;23;20048;-86
2023/07/25 11:07:46;;;;;;;0.10;0.10;;;;;;;20.33;100.00;98920.94;6130966;23;20017;-88
2023/07/25 11:10:25;;;;;;;0.10;0.10;;;;;;;20.36;100.00;98900.16;6131143;23;20063;-88
2023/07/25 11:13:11;;;;;;;0.80;0.63;;;;;;;20.34;100.00;98896.38;6130666;23;20036;-88
2023/07/25 11:15:37;;;;;;;0.10;0.10;;;;;;;20.37;100.00;98915.78;6156053;23;20158;-87
2023/07/25 11:18:06;;;;;;;0.13;0.13;;;;;;;20.35;100.00;98912.72;6132374;23;20322;-88
2023/07/25 11:20:32;;;;;;;0.35;0.15;;;;;;;20.16;100.00;98883.75;6131544;23;20027;-87
2023/07/25 11:22:57;;;;;;;0.10;0.10;;;;;;;20.02;100.00;98862.41;6132597;23;20016;-88